Time;durP1;ratioP1;P1;durP2;ratioP2;P2;SDS_P1;SDS_P2;PMS_P1;PMS_P2;Temp;Humidity;BMP_temperature;BMP_pressure;BME280_temperature;BME280_humidity;BME280_pressure;Samples;Min_cycle;Max_cycle;Signal;HPM_P1;HPM_P2
2024/01/19 00:01:38;;;;;;;19.60;10.65;;;0.70;99.90;;;;;;4152814;28;20036;-73
2024/01/19 00:03:39;;;;;;;18.05;11.15;;;0.70;99.90;;;;;;4135912;28;20034;-74
2024/01/19 00:05:39;;;;;;;18.48;10.90;;;0.70;99.90;;;;;;4157214;28;20493;-74
2024/01/19 00:07:40;;;;;;;18.75;11.05;;;0.70;99.90;;;;;;4149485;28;20033;-74
2024/01/19 00:09:40;;;;;;;20.02;11.60;;;0.70;99.90;;;;;;4156048;28;20033;-74
2024/01/19 00:11:41;;;;;;;17.67;10.20;;;0.60;99.90;;;;;;4156031;28;20106;-73
2024/01/19 00:13:42;;;;;;;16.58;10.38;;;0.60;99.90;;;;;;4156929;28;20040;-73
2024/01/19 00:15:43;;;;;;;19.38;12.40;;;0.60;99.90;;;;;;4157390;28;20037;-73
2024/01/19 00:17:43;;;;;;;21.67;11.70;;;0.60;99.90;;;;;;4150618;28;20034;-73
2024/01/19 00:19:44;;;;;;;20.63;12.02;;;0.50;99.90;;;;;;4150910;28;20052;-73
2024/01/19 00:21:46;;;;;;;18.20;11.45;;;0.50;99.90;;;;;;4133695;28;20519;-72
2024/01/19 00:23:47;;;;;;;19.60;11.83;;;0.50;99.90;;;;;;4153401;28;20034;-74
2024/01/19 00:25:47;;;;;;;18.35;11.18;;;0.50;99.90;;;;;;4153044;28;20036;-73
2024/01/19 00:27:48;;;;;;;23.58;12.65;;;0.50;99.90;;;;;;4151615;28;20030;-73
2024/01/19 00:29:48;;;;;;;22.33;12.20;;;0.50;99.90;;;;;;4154878;28;20036;-73
2024/01/19 00:31:49;;;;;;;17.67;11.43;;;0.50;99.90;;;;;;4139488;28;20033;-73
2024/01/19 00:33:49;;;;;;;18.85;11.40;;;0.40;99.90;;;;;;4150013;28;20116;-73
2024/01/19 00:35:50;;;;;;;20.50;12.63;;;0.40;99.90;;;;;;4134424;28;20057;-73
2024/01/19 00:37:51;;;;;;;22.05;13.00;;;0.40;99.90;;;;;;4135785;28;20032;-73
2024/01/19 00:39:51;;;;;;;17.70;10.98;;;0.40;99.90;;;;;;4137290;28;20034;-73
2024/01/19 00:41:52;;;;;;;20.77;12.43;;;0.30;99.90;;;;;;4152700;28;20380;-73
2024/01/19 00:43:53;;;;;;;25.15;12.65;;;0.40;99.90;;;;;;4152622;28;20113;-72
2024/01/19 00:45:53;;;;;;;22.00;12.82;;;0.30;99.90;;;;;;4152715;28;20030;-73
2024/01/19 00:47:54;;;;;;;22.52;12.10;;;0.30;99.90;;;;;;4154320;28;20117;-76
2024/01/19 00:49:54;;;;;;;21.05;11.93;;;0.30;99.90;;;;;;4152298;28;20088;-76
2024/01/19 00:51:55;;;;;;;23.65;12.80;;;0.20;99.90;;;;;;4150656;28;20453;-76
2024/01/19 00:53:55;;;;;;;20.35;12.35;;;0.30;99.90;;;;;;4153853;28;20402;-76
2024/01/19 00:55:56;;;;;;;19.27;11.30;;;0.10;99.90;;;;;;4148443;28;20033;-75
2024/01/19 00:57:57;;;;;;;20.77;12.05;;;0.20;99.90;;;;;;4135143;28;20113;-76
2024/01/19 00:59:57;;;;;;;19.20;11.50;;;0.20;99.90;;;;;;4152741;28;20103;-75
2024/01/19 01:01:58;;;;;;;20.35;11.80;;;0.20;99.90;;;;;;4136064;28;20050;-75
2024/01/19 01:03:59;;;;;;;21.75;12.40;;;0.20;99.90;;;;;;4137097;28;20109;-76
2024/01/19 01:05:59;;;;;;;27.35;12.80;;;0.10;99.90;;;;;;4118895;28;20840;-76
2024/01/19 01:08:00;;;;;;;24.52;13.18;;;0.10;99.90;;;;;;4158306;28;20049;-76
2024/01/19 01:10:01;;;;;;;26.88;14.45;;;0.00;99.90;;;;;;4158626;28;20054;-76
2024/01/19 01:12:02;;;;;;;28.75;13.65;;;0.00;99.90;;;;;;4157553;28;20056;-76
2024/01/19 01:14:03;;;;;;;29.20;16.05;;;0.00;99.90;;;;;;4132308;28;20089;-76
2024/01/19 01:16:04;;;;;;;25.15;13.65;;;0.00;99.90;;;;;;4135668;28;20038;-75
2024/01/19 01:18:05;;;;;;;26.80;13.45;;;0.00;99.90;;;;;;4136081;28;20191;-73
2024/01/19 01:20:06;;;;;;;23.27;13.23;;;-0.10;99.90;;;;;;4137099;28;20552;-74
2024/01/19 01:22:08;;;;;;;25.30;13.65;;;-0.10;99.90;;;;;;4150072;28;20044;-73
2024/01/19 01:24:08;;;;;;;31.58;15.88;;;-0.10;99.90;;;;;;4130663;28;20532;-73
2024/01/19 01:26:09;;;;;;;34.03;16.50;;;-0.20;99.90;;;;;;4144103;28;20026;-74
2024/01/19 01:28:10;;;;;;;31.63;15.77;;;-0.20;99.90;;;;;;4137483;28;20029;-74
2024/01/19 01:30:10;;;;;;;31.80;15.93;;;-0.30;99.90;;;;;;4133932;28;20169;-75
2024/01/19 01:32:11;;;;;;;34.88;15.20;;;-0.20;99.90;;;;;;4151290;28;20118;-74
2024/01/19 01:34:12;;;;;;;38.80;17.30;;;-0.20;99.90;;;;;;4152913;28;20041;-74
2024/01/19 01:36:12;;;;;;;36.88;17.23;;;-0.30;99.90;;;;;;4117733;28;20042;-75
2024/01/19 01:38:13;;;;;;;38.38;17.83;;;-0.40;99.90;;;;;;4152459;28;20064;-75
2024/01/19 01:40:13;;;;;;;34.67;16.73;;;-0.40;99.90;;;;;;4132405;28;20156;-75
2024/01/19 01:42:14;;;;;;;32.90;16.00;;;-0.50;99.90;;;;;;4151048;28;20029;-74
2024/01/19 01:44:15;;;;;;;39.20;18.42;;;-0.40;99.90;;;;;;4148650;28;21309;-75
2024/01/19 01:46:15;;;;;;;40.03;18.48;;;-0.40;99.90;;;;;;4149025;28;20109;-74
2024/01/19 01:48:18;;;;;;;36.75;17.42;;;-0.50;99.90;;;;;;4137331;28;20030;-75
2024/01/19 01:50:19;;;;;;;39.70;18.48;;;-0.50;99.90;;;;;;4151735;28;20069;-75
2024/01/19 01:52:20;;;;;;;41.60;18.52;;;-0.50;99.90;;;;;;4135130;28;20034;-74
2024/01/19 01:54:21;;;;;;;42.80;17.80;;;-0.50;99.90;;;;;;4134045;28;20045;-75
2024/01/19 01:56:22;;;;;;;37.03;16.67;;;-0.40;99.90;;;;;;4151002;28;20045;-75
2024/01/19 01:58:23;;;;;;;32.40;16.83;;;-0.50;99.90;;;;;;4152130;28;20120;-70
2024/01/19 02:00:23;;;;;;;35.83;17.27;;;-0.40;99.90;;;;;;4151271;28;20049;-71
2024/01/19 02:02:24;;;;;;;49.33;22.42;;;-0.40;99.90;;;;;;4153980;28;20029;-71
2024/01/19 02:04:26;;;;;;;34.35;18.13;;;-0.40;99.90;;;;;;4152436;28;20491;-71
2024/01/19 02:06:29;;;;;;;37.92;19.42;;;-0.40;99.90;;;;;;4134753;28;20038;-71
2024/01/19 02:08:30;;;;;;;39.03;18.30;;;-0.30;99.90;;;;;;4136926;28;20048;-71
2024/01/19 02:10:30;;;;;;;35.28;17.45;;;-0.30;99.90;;;;;;4151467;28;20120;-70
2024/01/19 02:12:32;;;;;;;41.38;19.95;;;-0.30;99.90;;;;;;4154981;28;20037;-70
2024/01/19 02:14:33;;;;;;;45.72;21.33;;;-0.30;99.90;;;;;;4159857;28;20038;-72
2024/01/19 02:16:34;;;;;;;41.53;19.15;;;-0.30;99.90;;;;;;4151570;28;20041;-71
2024/01/19 02:18:34;;;;;;;40.80;18.75;;;-0.30;99.90;;;;;;4154702;28;20735;-71
2024/01/19 02:20:35;;;;;;;47.55;20.75;;;-0.30;99.90;;;;;;4151337;28;20387;-71
2024/01/19 02:22:36;;;;;;;44.47;20.95;;;-0.30;99.90;;;;;;4151652;28;20062;-70
2024/01/19 02:24:37;;;;;;;40.63;19.33;;;-0.30;99.90;;;;;;4152634;28;20391;-70
2024/01/19 02:26:38;;;;;;;45.92;20.08;;;-0.30;99.90;;;;;;4151976;28;20037;-70
2024/01/19 02:28:39;;;;;;;47.85;20.52;;;-0.30;99.90;;;;;;4151226;28;20049;-70
2024/01/19 02:30:41;;;;;;;41.38;20.80;;;-0.20;99.90;;;;;;4134716;28;20092;-72
2024/01/19 02:32:41;;;;;;;46.90;22.83;;;-0.20;99.90;;;;;;4134607;28;20117;-70
2024/01/19 02:34:42;;;;;;;44.42;21.17;;;-0.10;99.90;;;;;;4116573;28;20420;-71
2024/01/19 02:36:43;;;;;;;38.67;19.00;;;-0.10;99.90;;;;;;4150237;28;20728;-71
2024/01/19 02:38:44;;;;;;;39.50;19.40;;;-0.10;99.90;;;;;;4150279;28;20115;-71
2024/01/19 02:40:44;;;;;;;49.30;21.83;;;-0.10;99.90;;;;;;4156459;28;20033;-71
2024/01/19 02:42:45;;;;;;;45.55;20.67;;;0.00;99.90;;;;;;4149283;28;20558;-70
2024/01/19 02:44:46;;;;;;;44.10;20.20;;;-0.10;99.90;;;;;;4148756;28;20124;-72
2024/01/19 02:46:46;;;;;;;40.15;18.98;;;0.00;99.90;;;;;;4153436;28;20030;-74
2024/01/19 02:48:47;;;;;;;44.85;22.38;;;0.00;99.90;;;;;;4154594;28;20467;-74
2024/01/19 02:50:48;;;;;;;44.38;21.10;;;0.00;99.90;;;;;;4153947;28;20052;-74
2024/01/19 02:52:48;;;;;;;44.47;21.33;;;0.00;99.90;;;;;;4151472;28;20438;-74
2024/01/19 02:54:49;;;;;;;44.95;21.02;;;0.00;99.90;;;;;;4148418;28;20095;-75
2024/01/19 02:56:49;;;;;;;45.05;21.35;;;0.00;99.90;;;;;;4127761;28;20026;-74
2024/01/19 02:58:50;;;;;;;40.08;20.58;;;0.00;99.90;;;;;;4148659;28;20121;-74
2024/01/19 03:00:51;;;;;;;46.03;21.08;;;0.10;99.90;;;;;;4149433;28;20037;-74
2024/01/19 03:02:51;;;;;;;46.97;20.48;;;0.10;99.90;;;;;;4149833;28;20148;-74
2024/01/19 03:04:52;;;;;;;42.42;21.23;;;0.10;99.90;;;;;;4130680;28;20042;-74
2024/01/19 03:06:53;;;;;;;44.90;21.35;;;0.20;99.90;;;;;;4148881;28;20842;-74
2024/01/19 03:08:54;;;;;;;41.47;20.50;;;0.20;99.90;;;;;;4154835;28;20041;-74
2024/01/19 03:10:55;;;;;;;45.15;21.00;;;0.30;99.90;;;;;;4150422;28;20111;-74
2024/01/19 03:12:56;;;;;;;40.90;20.50;;;0.20;99.90;;;;;;4151601;28;20033;-74
2024/01/19 03:14:56;;;;;;;46.47;22.10;;;0.30;99.90;;;;;;4152330;28;20109;-75
2024/01/19 03:16:57;;;;;;;47.60;21.27;;;0.40;99.90;;;;;;4150878;28;20033;-74
2024/01/19 03:19:00;;;;;;;52.63;25.65;;;0.40;99.90;;;;;;4134250;28;20035;-74
2024/01/19 03:21:00;;;;;;;47.17;22.83;;;0.40;99.90;;;;;;4151892;28;20133;-74
2024/01/19 03:23:01;;;;;;;48.40;23.13;;;0.40;99.90;;;;;;4151366;28;20535;-74
2024/01/19 03:25:02;;;;;;;44.25;20.55;;;0.40;99.90;;;;;;4152279;28;20494;-74
2024/01/19 03:27:03;;;;;;;47.85;22.38;;;0.40;99.90;;;;;;4150490;28;20030;-75
2024/01/19 03:29:03;;;;;;;45.38;21.55;;;0.50;99.90;;;;;;4151249;28;20442;-75
2024/01/19 03:31:04;;;;;;;44.28;20.55;;;0.50;99.90;;;;;;4151588;28;20030;-75
2024/01/19 03:33:05;;;;;;;46.97;21.83;;;0.50;99.90;;;;;;4133329;28;20038;-75
2024/01/19 03:35:05;;;;;;;45.33;22.08;;;0.60;99.90;;;;;;4151178;28;20025;-74
2024/01/19 03:37:06;;;;;;;44.33;20.77;;;0.60;99.90;;;;;;4154325;28;20624;-75
2024/01/19 03:39:07;;;;;;;53.05;23.63;;;0.60;99.90;;;;;;4159953;28;20030;-74
2024/01/19 03:41:07;;;;;;;44.28;21.52;;;0.60;99.90;;;;;;4158977;28;20037;-74
2024/01/19 03:43:08;;;;;;;42.65;20.10;;;0.60;99.90;;;;;;4159637;28;20045;-74
2024/01/19 03:45:09;;;;;;;47.45;23.33;;;0.60;99.90;;;;;;4159438;28;20034;-74
2024/01/19 03:47:09;;;;;;;47.75;21.95;;;0.60;99.90;;;;;;4159657;28;20033;-74
2024/01/19 03:49:10;;;;;;;48.80;21.02;;;0.70;99.90;;;;;;4159380;28;20482;-74
2024/01/19 03:51:10;;;;;;;40.03;19.55;;;0.70;99.90;;;;;;4159018;28;20696;-75
2024/01/19 03:53:11;;;;;;;47.90;21.00;;;0.70;99.90;;;;;;4150417;28;20513;-74
2024/01/19 03:55:12;;;;;;;42.58;21.92;;;0.70;99.90;;;;;;4146948;28;20525;-74
2024/01/19 03:57:12;;;;;;;42.70;20.80;;;0.70;99.90;;;;;;4159802;28;20044;-75
2024/01/19 03:59:13;;;;;;;39.17;20.00;;;0.80;99.90;;;;;;4159957;28;20113;-74
2024/01/19 04:01:15;;;;;;;43.50;20.17;;;0.80;99.90;;;;;;4141519;28;20030;-74
2024/01/19 04:03:16;;;;;;;38.88;20.08;;;0.80;99.90;;;;;;4159462;28;20164;-74
2024/01/19 04:05:16;;;;;;;44.58;21.60;;;0.80;99.90;;;;;;4158465;28;20437;-75
2024/01/19 04:07:17;;;;;;;46.47;21.70;;;0.80;99.90;;;;;;4159843;28;20414;-74
2024/01/19 04:09:18;;;;;;;43.28;21.48;;;0.80;99.90;;;;;;4161121;28;20446;-74
2024/01/19 04:11:19;;;;;;;47.70;22.70;;;0.80;99.90;;;;;;4161969;28;20033;-74
2024/01/19 04:13:20;;;;;;;48.00;21.10;;;0.80;99.90;;;;;;4162194;28;20030;-74
2024/01/19 04:15:21;;;;;;;43.95;21.38;;;0.80;99.90;;;;;;4161828;28;20482;-74
2024/01/19 04:17:21;;;;;;;41.88;21.02;;;0.80;99.90;;;;;;4161977;28;20023;-75
2024/01/19 04:19:22;;;;;;;42.50;20.95;;;0.80;99.90;;;;;;4162014;28;20045;-74
2024/01/19 04:21:22;;;;;;;43.58;20.85;;;0.80;99.90;;;;;;4159684;28;20064;-74
2024/01/19 04:23:23;;;;;;;42.97;22.08;;;0.90;99.90;;;;;;4134742;28;20454;-74
2024/01/19 04:25:24;;;;;;;52.97;22.65;;;0.80;99.90;;;;;;4148490;28;20040;-73
2024/01/19 04:27:24;;;;;;;46.42;22.02;;;0.90;99.90;;;;;;4162619;28;20390;-74
2024/01/19 04:29:25;;;;;;;46.72;23.35;;;0.80;99.90;;;;;;4161199;28;20387;-74
2024/01/19 04:31:25;;;;;;;46.20;22.65;;;0.80;99.90;;;;;;4143716;28;20487;-74
2024/01/19 04:33:26;;;;;;;49.10;23.48;;;0.80;99.90;;;;;;4159179;28;20038;-74
2024/01/19 04:35:26;;;;;;;51.47;24.35;;;0.80;99.90;;;;;;4160520;28;20445;-75
2024/01/19 04:37:27;;;;;;;47.33;22.42;;;0.80;99.90;;;;;;4162443;28;20572;-75
2024/01/19 04:39:27;;;;;;;57.90;23.90;;;0.90;99.90;;;;;;4146313;28;20034;-75
2024/01/19 04:41:28;;;;;;;57.88;25.42;;;0.80;99.90;;;;;;4153938;28;20033;-75
2024/01/19 04:43:29;;;;;;;49.33;24.65;;;0.80;99.90;;;;;;4160100;28;20417;-75
2024/01/19 04:45:29;;;;;;;59.13;26.05;;;0.80;99.90;;;;;;4161071;28;20918;-75
2024/01/19 04:47:30;;;;;;;55.10;25.23;;;0.90;99.90;;;;;;4143104;28;20033;-75
2024/01/19 04:49:31;;;;;;;50.92;24.48;;;0.90;99.90;;;;;;4144437;28;20041;-75
2024/01/19 04:51:32;;;;;;;49.72;23.23;;;0.90;99.90;;;;;;4143705;28;20042;-75
2024/01/19 04:53:32;;;;;;;56.72;25.30;;;0.90;99.90;;;;;;4162258;28;20474;-75
2024/01/19 04:55:33;;;;;;;49.58;23.88;;;0.90;99.90;;;;;;4161155;28;20430;-75
2024/01/19 04:57:33;;;;;;;48.17;23.60;;;0.90;99.90;;;;;;4144380;28;20541;-74
2024/01/19 04:59:34;;;;;;;55.78;27.45;;;0.90;99.90;;;;;;4161555;28;20025;-74
2024/01/19 05:01:35;;;;;;;54.88;25.50;;;0.80;99.90;;;;;;4159915;28;20052;-74
2024/01/19 05:03:35;;;;;;;52.90;23.70;;;0.80;99.90;;;;;;4153381;28;20034;-74
2024/01/19 05:05:36;;;;;;;52.10;26.17;;;0.80;99.90;;;;;;4144848;28;20030;-75
2024/01/19 05:07:36;;;;;;;46.05;22.20;;;0.80;99.90;;;;;;4161135;28;20091;-74
2024/01/19 05:09:37;;;;;;;52.85;24.15;;;0.80;99.90;;;;;;4145641;28;20042;-75
2024/01/19 05:11:37;;;;;;;47.90;22.90;;;0.80;99.90;;;;;;4151715;28;20064;-75
2024/01/19 05:13:38;;;;;;;49.88;22.77;;;0.80;99.90;;;;;;4143694;28;20453;-75
2024/01/19 05:15:39;;;;;;;51.53;23.63;;;0.90;99.90;;;;;;4160960;28;20111;-75
2024/01/19 05:17:39;;;;;;;41.53;19.23;;;0.90;99.90;;;;;;4143736;28;20411;-75
2024/01/19 05:19:40;;;;;;;44.75;20.65;;;0.90;99.90;;;;;;4161778;28;20653;-75
2024/01/19 05:21:41;;;;;;;48.25;22.17;;;0.90;99.90;;;;;;4157664;28;20029;-75
2024/01/19 05:23:41;;;;;;;46.05;22.10;;;0.90;99.90;;;;;;4157710;28;20029;-74
2024/01/19 05:25:42;;;;;;;48.05;22.88;;;0.90;99.90;;;;;;4160301;28;20479;-76
2024/01/19 05:27:42;;;;;;;46.40;22.33;;;0.90;99.90;;;;;;4143494;28;20519;-71
2024/01/19 05:29:43;;;;;;;50.20;23.00;;;0.90;99.90;;;;;;4143021;28;20585;-71
2024/01/19 05:31:43;;;;;;;50.63;22.40;;;0.90;99.90;;;;;;4160084;28;20040;-71
2024/01/19 05:33:44;;;;;;;47.63;22.73;;;0.90;99.90;;;;;;4156138;28;20148;-71
2024/01/19 05:35:45;;;;;;;43.22;21.40;;;0.90;99.90;;;;;;4155006;28;20022;-70
2024/01/19 05:37:45;;;;;;;43.78;21.35;;;0.90;99.90;;;;;;4153605;28;20021;-74
2024/01/19 05:39:46;;;;;;;43.97;20.90;;;0.90;99.90;;;;;;4152902;28;20045;-71
2024/01/19 05:41:47;;;;;;;44.67;20.20;;;0.90;99.90;;;;;;4148661;28;20482;-71
2024/01/19 05:43:48;;;;;;;42.55;20.77;;;0.90;99.90;;;;;;4160945;28;20022;-71
2024/01/19 05:45:49;;;;;;;41.58;20.30;;;1.00;99.90;;;;;;4142593;28;20498;-72
2024/01/19 05:47:49;;;;;;;44.13;20.25;;;0.90;99.90;;;;;;4161554;28;20030;-72
2024/01/19 05:49:50;;;;;;;42.78;20.65;;;1.00;99.90;;;;;;4146944;28;20030;-78
2024/01/19 05:51:51;;;;;;;36.20;18.73;;;1.00;99.90;;;;;;4148090;28;20590;-78
2024/01/19 05:53:51;;;;;;;39.45;19.25;;;0.90;99.90;;;;;;4160228;28;20057;-78
2024/01/19 05:55:52;;;;;;;40.50;19.77;;;1.00;99.90;;;;;;4146112;28;20034;-79
2024/01/19 05:57:53;;;;;;;41.13;20.08;;;0.90;99.90;;;;;;4157211;28;20598;-78
2024/01/19 05:59:53;;;;;;;35.13;17.23;;;1.00;99.90;;;;;;4160613;28;20061;-78
2024/01/19 06:01:54;;;;;;;36.88;17.55;;;1.00;99.90;;;;;;4158661;28;20815;-78
2024/01/19 06:03:57;;;;;;;34.65;17.92;;;1.00;99.90;;;;;;4144549;28;20583;-78
2024/01/19 06:05:57;;;;;;;38.33;17.85;;;1.00;99.90;;;;;;4147641;28;20033;-76
2024/01/19 06:07:58;;;;;;;39.03;18.70;;;1.00;99.90;;;;;;4165520;28;20448;-76
2024/01/19 06:09:59;;;;;;;34.53;17.02;;;1.00;99.90;;;;;;4164290;28;20394;-76
2024/01/19 06:11:59;;;;;;;33.78;16.65;;;1.00;99.90;;;;;;4138252;28;20057;-76
2024/01/19 06:14:00;;;;;;;35.75;16.52;;;0.90;99.90;;;;;;4163492;28;20060;-78
2024/01/19 06:16:01;;;;;;;30.90;14.60;;;0.90;99.90;;;;;;4151431;28;20040;-77
2024/01/19 06:18:02;;;;;;;30.58;16.02;;;0.90;99.90;;;;;;4161028;28;20045;-74
2024/01/19 06:20:03;;;;;;;28.95;15.32;;;0.90;99.90;;;;;;4148160;28;20471;-75
2024/01/19 06:22:04;;;;;;;34.33;17.55;;;1.00;99.90;;;;;;4148301;28;20057;-75
2024/01/19 06:24:04;;;;;;;31.80;16.13;;;1.00;99.90;;;;;;4155446;28;20603;-74
2024/01/19 06:26:11;;;;;;;31.20;15.82;;;1.00;99.90;;;;;;4156081;28;20091;-75
2024/01/19 06:28:12;;;;;;;32.15;15.77;;;1.00;99.90;;;;;;4151552;28;20038;-74
2024/01/19 06:30:13;;;;;;;34.65;16.30;;;1.00;99.90;;;;;;4135064;28;20079;-75
2024/01/19 06:32:14;;;;;;;31.80;16.02;;;1.00;99.90;;;;;;4146972;28;20633;-74
2024/01/19 06:34:15;;;;;;;27.80;14.57;;;1.00;99.90;;;;;;4149092;28;20049;-74
2024/01/19 06:36:15;;;;;;;31.70;16.05;;;1.00;99.90;;;;;;4148306;28;20103;-74
2024/01/19 06:38:16;;;;;;;27.92;15.45;;;1.00;99.90;;;;;;4158814;28;20103;-74
2024/01/19 06:40:18;;;;;;;29.08;15.10;;;1.00;99.90;;;;;;4156234;28;20109;-73
2024/01/19 06:42:19;;;;;;;29.50;14.77;;;1.00;99.90;;;;;;4142098;28;21010;-74
2024/01/19 06:44:19;;;;;;;32.67;16.20;;;0.90;99.90;;;;;;4149329;28;20495;-74
2024/01/19 06:46:20;;;;;;;30.90;16.05;;;1.00;99.90;;;;;;4127546;28;20038;-74
2024/01/19 06:48:20;;;;;;;30.83;15.55;;;0.90;99.90;;;;;;4141097;28;20037;-74
2024/01/19 06:50:22;;;;;;;29.77;15.20;;;0.90;99.90;;;;;;4156725;28;20387;-74
2024/01/19 06:52:24;;;;;;;31.52;15.70;;;0.90;99.90;;;;;;4158166;28;20049;-74
2024/01/19 06:54:25;;;;;;;33.42;17.25;;;0.90;99.90;;;;;;4146906;28;20064;-75
2024/01/19 06:56:25;;;;;;;31.05;16.65;;;0.90;99.90;;;;;;4141904;28;20129;-74
2024/01/19 06:58:26;;;;;;;35.88;16.80;;;0.90;99.90;;;;;;4150180;28;20063;-76
2024/01/19 07:00:26;;;;;;;30.08;15.60;;;1.00;99.90;;;;;;4149989;28;20410;-76
2024/01/19 07:02:27;;;;;;;32.35;15.90;;;0.90;99.90;;;;;;4157912;28;20117;-75
2024/01/19 07:04:28;;;;;;;31.08;15.75;;;0.90;99.90;;;;;;4158824;28;20045;-75
2024/01/19 07:06:28;;;;;;;30.95;15.95;;;0.90;99.90;;;;;;4157445;28;20114;-75
2024/01/19 07:08:29;;;;;;;27.08;15.30;;;0.90;99.90;;;;;;4153242;28;20029;-75
2024/01/19 07:10:29;;;;;;;33.20;17.58;;;0.90;99.90;;;;;;4157708;28;20061;-72
2024/01/19 07:12:30;;;;;;;32.35;16.20;;;0.90;99.90;;;;;;4154816;28;20038;-74
2024/01/19 07:14:30;;;;;;;31.20;16.33;;;0.90;99.90;;;;;;4159188;28;20458;-72
2024/01/19 07:16:31;;;;;;;31.80;16.42;;;0.90;99.90;;;;;;4156956;28;20037;-71
2024/01/19 07:18:32;;;;;;;29.17;15.35;;;0.90;99.90;;;;;;4160318;28;20046;-72
2024/01/19 07:20:32;;;;;;;28.75;14.63;;;1.00;99.90;;;;;;4152091;28;20041;-72
2024/01/19 07:22:33;;;;;;;33.22;16.00;;;1.00;99.90;;;;;;4155018;28;20391;-72
2024/01/19 07:24:35;;;;;;;29.73;14.85;;;0.90;99.90;;;;;;4149813;28;20064;-72
2024/01/19 07:26:36;;;;;;;28.02;15.18;;;1.00;99.90;;;;;;4153096;28;20041;-72
2024/01/19 07:28:37;;;;;;;26.02;14.55;;;1.00;99.90;;;;;;4154281;28;20525;-72
2024/01/19 07:30:40;;;;;;;28.90;15.13;;;1.00;99.90;;;;;;4154012;28;20030;-71
2024/01/19 07:32:41;;;;;;;34.97;16.20;;;1.00;99.90;;;;;;4156396;28;20033;-74
2024/01/19 07:34:41;;;;;;;27.83;15.75;;;1.00;99.90;;;;;;4156316;28;20033;-73
2024/01/19 07:36:44;;;;;;;31.35;16.63;;;1.00;99.90;;;;;;4156897;28;20429;-72
2024/01/19 07:38:45;;;;;;;28.02;15.20;;;1.10;99.90;;;;;;4156325;28;20042;-72
2024/01/19 07:40:45;;;;;;;28.38;15.80;;;1.10;99.90;;;;;;4154661;28;20030;-72
2024/01/19 07:42:46;;;;;;;31.88;16.42;;;1.10;99.90;;;;;;4156726;28;20108;-73
2024/01/19 07:44:46;;;;;;;32.45;16.70;;;1.10;99.90;;;;;;4164386;28;20112;-71
2024/01/19 07:46:48;;;;;;;26.15;14.85;;;1.10;99.90;;;;;;4155756;28;20430;-72
2024/01/19 07:48:48;;;;;;;33.10;15.75;;;1.10;99.90;;;;;;4159916;28;20041;-72
2024/01/19 07:50:49;;;;;;;29.63;15.35;;;1.10;99.90;;;;;;4158991;28;20261;-73
2024/01/19 07:52:50;;;;;;;30.27;16.20;;;1.10;99.90;;;;;;4160044;28;20041;-72
2024/01/19 07:54:50;;;;;;;32.88;16.40;;;1.10;99.90;;;;;;4159342;28;20037;-72
2024/01/19 07:56:51;;;;;;;33.35;16.35;;;1.10;99.90;;;;;;4139898;28;20030;-73
2024/01/19 07:58:51;;;;;;;28.27;15.63;;;1.00;99.90;;;;;;4143348;28;20507;-76
2024/01/19 08:00:52;;;;;;;34.25;16.33;;;1.10;99.90;;;;;;4156597;28;20598;-75
2024/01/19 08:02:53;;;;;;;27.48;15.48;;;1.10;99.90;;;;;;4156428;28;20499;-75
2024/01/19 08:04:53;;;;;;;32.30;17.20;;;1.10;99.90;;;;;;4156317;28;20030;-76
2024/01/19 08:06:54;;;;;;;35.15;17.42;;;1.00;99.90;;;;;;4156379;28;20038;-76
2024/01/19 08:08:54;;;;;;;33.05;16.63;;;1.10;99.90;;;;;;4155333;28;20059;-76
2024/01/19 08:10:55;;;;;;;27.10;15.77;;;1.10;99.90;;;;;;4151246;28;21322;-76
2024/01/19 08:12:55;;;;;;;29.60;15.65;;;1.00;99.90;;;;;;4157015;28;20414;-76
2024/01/19 08:14:57;;;;;;;36.78;17.63;;;1.00;99.90;;;;;;4156332;28;20041;-76
2024/01/19 08:16:58;;;;;;;34.65;16.67;;;1.00;99.90;;;;;;4155156;28;20479;-76
2024/01/19 08:18:58;;;;;;;29.65;15.43;;;1.00;99.90;;;;;;4156586;28;20045;-75
2024/01/19 08:21:01;;;;;;;27.02;15.75;;;1.00;99.90;;;;;;4153862;28;20041;-75
2024/01/19 08:23:02;;;;;;;28.25;15.07;;;1.00;99.90;;;;;;4158376;28;20040;-76
2024/01/19 08:25:04;;;;;;;30.15;16.15;;;1.10;99.90;;;;;;4155407;28;20052;-75
2024/01/19 08:27:05;;;;;;;27.95;15.50;;;1.10;99.90;;;;;;4156798;28;20040;-76
2024/01/19 08:29:05;;;;;;;28.75;15.50;;;1.10;99.90;;;;;;4158089;28;20046;-76
2024/01/19 08:31:13;;;;;;;34.33;17.55;;;1.10;99.90;;;;;;4154336;28;20045;-76
2024/01/19 08:33:13;;;;;;;35.67;17.55;;;1.10;99.90;;;;;;4137749;28;20612;-75
2024/01/19 08:35:14;;;;;;;34.47;17.88;;;1.10;99.90;;;;;;4133584;28;20042;-76
2024/01/19 08:37:15;;;;;;;28.90;15.02;;;1.10;99.90;;;;;;4143620;28;20089;-76
2024/01/19 08:39:15;;;;;;;29.15;15.18;;;1.10;99.90;;;;;;4138338;28;20380;-77
2024/01/19 08:41:16;;;;;;;33.65;17.13;;;1.10;99.90;;;;;;4154238;28;20485;-76
2024/01/19 08:43:16;;;;;;;33.00;16.83;;;1.10;99.90;;;;;;4153863;28;20045;-76
2024/01/19 08:45:17;;;;;;;30.40;15.80;;;1.10;99.90;;;;;;4154658;28;20045;-76
2024/01/19 08:47:18;;;;;;;26.17;14.50;;;1.10;99.90;;;;;;4153520;28;20129;-76
2024/01/19 08:49:19;;;;;;;32.22;16.45;;;1.10;99.90;;;;;;4155934;28;20026;-78
2024/01/19 08:51:23;;;;;;;31.13;16.23;;;1.10;99.90;;;;;;4153841;28;20529;-79
2024/01/19 08:53:24;;;;;;;29.02;16.38;;;1.10;99.90;;;;;;4155561;28;20045;-79
2024/01/19 08:55:25;;;;;;;37.45;19.23;;;1.20;99.90;;;;;;4153784;28;21071;-75
2024/01/19 08:57:25;;;;;;;34.22;17.90;;;1.20;99.90;;;;;;4155374;28;20437;-77
2024/01/19 08:59:26;;;;;;;32.95;16.38;;;1.20;99.90;;;;;;4143939;28;20030;-78
2024/01/19 09:01:27;;;;;;;38.47;18.88;;;1.20;99.90;;;;;;4154890;28;20059;-77
2024/01/19 09:03:27;;;;;;;30.80;16.98;;;1.30;99.90;;;;;;4155256;28;20053;-77
2024/01/19 09:05:28;;;;;;;35.10;18.42;;;1.30;99.90;;;;;;4153308;28;20038;-78
2024/01/19 09:07:28;;;;;;;27.80;15.45;;;1.40;99.90;;;;;;4155967;28;20038;-78
2024/01/19 09:09:29;;;;;;;29.45;16.25;;;1.50;99.90;;;;;;4153581;28;20046;-74
2024/01/19 09:11:34;;;;;;;31.75;17.80;;;1.60;99.90;;;;;;4152159;28;20546;-75
2024/01/19 09:13:34;;;;;;;32.20;16.42;;;1.70;99.90;;;;;;4154969;28;20409;-75
2024/01/19 09:15:35;;;;;;;27.58;15.95;;;1.80;99.90;;;;;;4151640;28;20057;-75
2024/01/19 09:17:35;;;;;;;29.63;15.65;;;1.90;99.90;;;;;;4153583;28;20049;-76
2024/01/19 09:19:36;;;;;;;27.42;15.45;;;2.00;99.90;;;;;;4151755;28;20034;-75
2024/01/19 09:21:37;;;;;;;24.63;13.30;;;2.00;99.90;;;;;;4153313;28;20052;-76
2024/01/19 09:23:38;;;;;;;26.27;15.10;;;2.10;99.90;;;;;;4155385;28;20099;-74
2024/01/19 09:25:38;;;;;;;31.13;15.20;;;2.10;99.90;;;;;;4155946;28;20041;-75
2024/01/19 09:27:40;;;;;;;25.10;14.38;;;2.00;99.90;;;;;;4143448;28;20407;-75
2024/01/19 09:29:40;;;;;;;24.88;14.27;;;2.00;99.90;;;;;;4135036;28;20045;-74
2024/01/19 09:31:45;;;;;;;27.75;15.93;;;1.90;99.90;;;;;;4154075;28;21206;-75
2024/01/19 09:33:46;;;;;;;28.38;14.35;;;1.90;99.90;;;;;;4154643;28;20049;-75
2024/01/19 09:35:46;;;;;;;25.33;13.52;;;1.80;99.90;;;;;;4155458;28;20029;-75
2024/01/19 09:37:47;;;;;;;27.75;14.65;;;1.80;99.90;;;;;;4154686;28;20442;-75
2024/01/19 09:39:47;;;;;;;26.02;14.52;;;1.80;99.90;;;;;;4153729;28;20052;-75
2024/01/19 09:42:14;;;;;;;23.52;13.27;;;1.80;99.90;;;;;;4152104;28;20033;-75
2024/01/19 09:44:18;;;;;;;25.83;13.57;;;1.80;99.90;;;;;;4138303;28;20151;-76
2024/01/19 09:46:25;;;;;;;27.27;14.73;;;1.80;99.90;;;;;;4154892;28;20036;-75
2024/01/19 09:48:33;;;;;;;27.23;14.65;;;1.70;99.90;;;;;;4142051;28;20038;-73
2024/01/19 09:50:35;;;;;;;28.83;14.65;;;1.80;99.90;;;;;;4138246;28;20492;-73
2024/01/19 09:52:49;;;;;;;28.27;14.90;;;1.70;99.90;;;;;;4152708;28;20049;-72
2024/01/19 09:54:49;;;;;;;23.95;13.55;;;1.70;99.90;;;;;;4151380;28;20036;-72
2024/01/19 09:56:50;;;;;;;26.92;13.95;;;1.70;99.90;;;;;;4151636;28;20116;-72
2024/01/19 09:58:55;;;;;;;24.85;14.35;;;1.70;99.90;;;;;;4156255;28;20133;-72
2024/01/19 10:00:56;;;;;;;26.98;12.95;;;1.70;99.90;;;;;;4153942;28;20064;-72
2024/01/19 10:02:58;;;;;;;24.33;13.30;;;1.80;99.90;;;;;;4137496;28;20125;-73
2024/01/19 10:04:59;;;;;;;24.90;13.43;;;1.80;99.90;;;;;;4154712;28;20049;-72
2024/01/19 10:07:01;;;;;;;27.58;14.75;;;1.80;99.90;;;;;;4154774;28;20055;-74
2024/01/19 10:09:03;;;;;;;25.38;14.20;;;1.80;99.90;;;;;;4153717;28;20172;-72
2024/01/19 10:11:07;;;;;;;31.03;15.33;;;1.80;99.90;;;;;;4154625;28;20600;-72
2024/01/19 10:13:09;;;;;;;28.20;14.88;;;1.80;99.90;;;;;;4155787;28;20037;-74
2024/01/19 10:15:11;;;;;;;27.42;14.60;;;1.80;99.90;;;;;;4155811;28;20058;-72
2024/01/19 10:17:14;;;;;;;25.80;13.95;;;1.80;99.90;;;;;;4138017;28;20038;-72
2024/01/19 10:19:16;;;;;;;22.40;12.15;;;1.80;99.90;;;;;;4155825;28;20478;-72
2024/01/19 10:21:27;;;;;;;29.45;14.35;;;1.80;99.90;;;;;;4155114;28;20040;-71